Time;durP1;ratioP1;P1;durP2;ratioP2;P2;SDS_P1;SDS_P2;PMS_P1;PMS_P2;Temp;Humidity;BMP_temperature;BMP_pressure;BME280_temperature;BME280_humidity;BME280_pressure;Samples;Min_cycle;Max_cycle;Signal;HPM_P1;HPM_P2
2023/02/12 00:01:27;;;;;;;24.40;17.80;;;;;;;3.30;48.57;102353.02;106771;1270;22668;-56
2023/02/12 00:03:56;;;;;;;25.00;17.40;;;;;;;3.27;48.47;102348.80;106102;1268;1002863;-57
2023/02/12 00:06:25;;;;;;;25.30;17.40;;;;;;;3.25;48.55;102355.05;106951;1270;24288;-57
2023/02/12 00:08:55;;;;;;;26.40;18.70;;;;;;;3.22;48.75;102366.27;106832;1273;24317;-57
2023/02/12 00:11:27;;;;;;;26.90;17.60;;;;;;;3.20;48.71;102362.25;106573;1276;25294;-56
2023/02/12 00:13:56;;;;;;;29.30;17.80;;;;;;;3.17;48.80;102354.10;106270;1269;1003444;-57
2023/02/12 00:16:25;;;;;;;24.90;18.10;;;;;;;3.16;48.93;102341.72;106894;1269;24233;-57
2023/02/12 00:18:55;;;;;;;24.20;17.30;;;;;;;3.12;48.77;102334.71;106854;1269;22563;-57
2023/02/12 00:21:24;;;;;;;26.50;19.30;;;;;;;3.10;49.25;102328.29;105864;1275;1003721;-59
2023/02/12 00:23:52;;;;;;;27.60;19.10;;;;;;;3.09;49.50;102315.23;106706;1270;22557;-56
2023/02/12 00:26:21;;;;;;;29.00;20.30;;;;;;;3.09;49.42;102317.81;106405;1271;25481;-56
2023/02/12 00:28:51;;;;;;;24.30;18.50;;;;;;;3.11;49.77;102334.69;106653;1276;25446;-56
2023/02/12 00:31:24;;;;;;;27.20;19.10;;;;;;;3.16;49.79;102338.44;106703;1270;22537;-56
2023/02/12 00:33:55;;;;;;;27.10;17.90;;;;;;;3.22;49.81;102317.56;106857;1269;22526;-57
2023/02/12 00:36:26;;;;;;;26.20;19.00;;;;;;;3.27;49.49;102346.73;106946;1269;25379;-56
2023/02/12 00:38:54;;;;;;;26.10;18.50;;;;;;;3.29;49.34;102333.73;106837;1273;25459;-56
2023/02/12 00:41:25;;;;;;;27.80;20.00;;;;;;;3.30;49.18;102341.33;106824;1269;22570;-56
2023/02/12 00:43:54;;;;;;;27.50;18.90;;;;;;;3.30;49.19;102336.70;106812;1276;25372;-57
2023/02/12 00:46:23;;;;;;;25.70;18.30;;;;;;;3.29;49.34;102334.96;106895;1269;25388;-56
2023/02/12 00:48:52;;;;;;;26.90;18.50;;;;;;;3.26;49.27;102340.20;107006;1269;25402;-56
2023/02/12 00:51:21;;;;;;;26.40;18.70;;;;;;;3.25;49.17;102340.66;106815;1270;25351;-56
2023/02/12 00:53:50;;;;;;;27.50;18.90;;;;;;;3.20;49.39;102341.52;106868;1270;24215;-56
2023/02/12 00:56:18;;;;;;;25.70;18.40;;;;;;;3.16;49.33;102332.11;106969;1269;25376;-56
2023/02/12 00:58:49;;;;;;;27.60;18.90;;;;;;;3.10;49.41;102334.33;106325;1269;1002414;-57
2023/02/12 01:01:18;;;;;;;27.20;19.30;;;;;;;3.04;49.29;102341.49;106937;1268;22539;-57
2023/02/12 01:03:48;;;;;;;27.70;19.70;;;;;;;2.99;49.39;102331.70;106011;1275;1003474;-56
2023/02/12 01:06:16;;;;;;;28.00;19.20;;;;;;;2.94;49.30;102332.05;106870;1269;24203;-56
2023/02/12 01:08:50;;;;;;;31.30;21.00;;;;;;;2.89;49.43;102340.10;106092;1270;1003378;-56
2023/02/12 01:11:19;;;;;;;29.90;21.40;;;;;;;2.85;49.53;102343.06;106863;1270;25424;-57
2023/02/12 01:13:49;;;;;;;30.20;21.40;;;;;;;2.82;49.66;102334.89;106729;1272;25388;-56
2023/02/12 01:16:22;;;;;;;27.50;20.20;;;;;;;2.80;49.85;102336.71;106044;1273;1003163;-56
2023/02/12 01:18:52;;;;;;;30.10;21.30;;;;;;;2.81;49.77;102323.36;106165;1269;1002910;-56
2023/02/12 01:21:25;;;;;;;33.10;21.40;;;;;;;2.82;49.56;102321.36;106946;1269;25528;-56
2023/02/12 01:23:55;;;;;;;33.70;20.60;;;;;;;2.83;49.30;102316.23;106156;1269;1003385;-56
2023/02/12 01:26:24;;;;;;;35.60;21.00;;;;;;;2.81;49.57;102313.95;106887;1269;22524;-56
2023/02/12 01:28:54;;;;;;;29.70;21.00;;;;;;;2.78;49.27;102308.02;106268;1269;1003685;-57
2023/02/12 01:31:24;;;;;;;30.80;20.80;;;;;;;2.76;49.33;102313.23;106773;1270;23001;-57
2023/02/12 01:33:54;;;;;;;31.90;22.20;;;;;;;2.71;49.15;102314.45;106913;1269;22535;-56
2023/02/12 01:36:25;;;;;;;29.40;21.70;;;;;;;2.67;49.35;102310.53;106196;1267;1003869;-57
2023/02/12 01:38:55;;;;;;;32.10;21.10;;;;;;;2.62;49.58;102308.29;106921;1268;25534;-57
2023/02/12 01:41:26;;;;;;;34.10;20.10;;;;;;;2.57;49.61;102307.27;106899;1269;22544;-57
2023/02/12 01:44:05;;;;;;;33.50;22.40;;;;;;;2.52;49.52;102307.59;106130;1272;1002432;-56
2023/02/12 01:46:35;;;;;;;32.00;21.20;;;;;;;2.46;49.79;102305.66;106182;1269;1003087;-57
2023/02/12 01:49:05;;;;;;;27.40;19.00;;;;;;;2.40;49.92;102299.45;106717;1269;321357;-56
2023/02/12 01:51:34;;;;;;;32.50;23.00;;;;;;;2.35;50.07;102302.52;106985;1269;24400;-56
2023/02/12 01:54:04;;;;;;;40.10;24.20;;;;;;;2.29;50.26;102299.75;106773;1269;25528;-56
2023/02/12 01:56:33;;;;;;;30.70;21.20;;;;;;;2.27;50.54;102302.23;105981;1275;1015587;-57
2023/02/12 01:59:02;;;;;;;33.30;21.90;;;;;;;2.26;50.73;102298.59;106087;1269;1002892;-56
2023/02/12 02:01:31;;;;;;;29.20;21.60;;;;;;;2.27;50.69;102294.36;106097;1268;1003627;-56
2023/02/12 02:04:10;;;;;;;32.50;23.00;;;;;;;2.29;50.68;102287.76;106020;1269;1003083;-56
2023/02/12 02:06:46;;;;;;;32.50;21.90;;;;;;;2.31;50.62;102288.67;106920;1269;23008;-56
2023/02/12 02:09:16;;;;;;;35.10;23.70;;;;;;;2.31;50.46;102293.66;106227;1269;1003143;-56
2023/02/12 02:14:33;;;;;;;34.10;23.10;;;;;;;2.28;50.72;102292.34;106743;1276;25493;-56
2023/02/12 02:17:20;;;;;;;36.20;23.70;;;;;;;2.25;50.57;102292.05;106913;1269;25360;-56
2023/02/12 02:20:25;;;;;;;31.10;22.40;;;;;;;2.20;50.86;102293.61;106930;1269;25344;-56
2023/02/12 02:23:24;;;;;;;33.60;23.10;;;;;;;2.17;50.98;102296.20;106925;1269;22674;-56
2023/02/12 02:26:21;;;;;;;37.40;25.90;;;;;;;2.14;51.14;102293.19;106076;1269;1003078;-58
2023/02/12 02:29:09;;;;;;;41.00;26.50;;;;;;;2.12;51.31;102291.75;106704;1269;25375;-57
2023/02/12 02:32:19;;;;;;;38.70;25.40;;;;;;;2.12;51.51;102298.41;106600;1269;25369;-57
2023/02/12 02:34:56;;;;;;;37.00;25.10;;;;;;;2.17;51.74;102297.43;106361;1272;25521;-57
2023/02/12 02:37:29;;;;;;;;;;;;;;;2.23;51.50;102291.96;106449;1275;25306;-56
2023/02/12 02:40:07;;;;;;;34.80;22.90;;;;;;;2.27;51.49;102294.54;105944;1272;1003089;-57
2023/02/12 02:42:43;;;;;;;38.40;24.70;;;;;;;2.31;51.46;102298.44;106713;1272;25376;-57
2023/02/12 02:45:33;;;;;;;37.50;24.90;;;;;;;2.33;51.01;102297.85;105895;1272;1003743;-57
2023/02/12 02:48:05;;;;;;;39.50;25.00;;;;;;;2.33;50.95;102295.10;105707;1272;1003266;-57
2023/02/12 02:50:34;;;;;;;;;;;;;;;2.32;51.15;102295.23;106342;1273;22748;-57
2023/02/12 02:53:06;;;;;;;36.00;24.30;;;;;;;2.31;51.07;102295.04;106389;1273;24191;-58
2023/02/12 02:55:37;;;;;;;34.40;23.60;;;;;;;2.29;51.09;102292.05;106384;1278;25379;-57
2023/02/12 02:58:11;;;;;;;36.90;24.20;;;;;;;2.29;51.11;102292.70;106708;1272;24224;-56
2023/02/12 03:00:47;;;;;;;38.00;25.60;;;;;;;2.28;51.36;102293.02;106662;1272;22641;-57
2023/02/12 03:03:26;;;;;;;41.00;28.00;;;;;;;2.26;50.95;102295.36;105884;1262;1003894;-57
2023/02/12 03:06:02;;;;;;;37.20;26.40;;;;;;;2.26;51.27;102294.34;106523;1274;22529;-57
2023/02/12 03:08:37;;;;;;;40.00;27.00;;;;;;;2.28;51.58;102297.64;106662;1272;24300;-57
2023/02/12 03:11:26;;;;;;;36.50;25.70;;;;;;;2.31;51.80;102294.16;106742;1259;22543;-57
2023/02/12 03:14:02;;;;;;;38.00;25.40;;;;;;;2.37;51.48;102294.90;106803;1256;25533;-57
2023/02/12 03:16:37;;;;;;;37.90;25.80;;;;;;;2.43;51.39;102292.40;106028;1263;1003032;-57
2023/02/12 03:19:15;;;;;;;42.40;27.70;;;;;;;2.49;51.42;102289.17;106219;1269;1003390;-57
2023/02/12 03:22:05;;;;;;;39.10;25.60;;;;;;;2.54;51.30;102292.24;106914;1276;25417;-57
2023/02/12 03:24:46;;;;;;;39.80;27.30;;;;;;;2.57;51.57;102295.27;106826;1269;22580;-57
2023/02/12 03:27:21;;;;;;;38.00;26.90;;;;;;;2.57;51.59;102287.91;106028;1272;1003654;-56
2023/02/12 03:29:50;;;;;;;38.70;26.10;;;;;;;2.57;52.03;102286.22;106085;1272;1003405;-56
2023/02/12 03:32:48;;;;;;;41.50;28.00;;;;;;;2.57;52.26;102291.84;106844;1269;24287;-57
2023/02/12 03:35:29;;;;;;;44.30;30.00;;;;;;;2.57;52.66;102289.77;106822;1269;24490;-57
2023/02/12 03:38:05;;;;;;;42.50;30.60;;;;;;;2.58;53.19;102286.92;106959;1269;25348;-57
2023/02/12 03:40:40;;;;;;;41.30;27.70;;;;;;;2.61;53.60;102283.45;106829;1272;24229;-57
2023/02/12 03:43:29;;;;;;;39.00;27.80;;;;;;;2.67;53.47;102284.65;107018;1269;23854;-57
2023/02/12 03:46:05;;;;;;;42.40;29.50;;;;;;;2.73;53.30;102289.48;106842;1269;22686;-57
2023/02/12 03:48:41;;;;;;;38.40;28.90;;;;;;;2.78;53.55;102290.16;106037;1256;1003410;-57
2023/02/12 03:51:18;;;;;;;40.40;28.90;;;;;;;2.80;53.57;102292.00;106861;1269;22641;-57
2023/02/12 03:53:47;;;;;;;41.70;29.10;;;;;;;2.81;53.66;102287.56;106910;1269;24348;-57
2023/02/12 03:56:49;;;;;;;44.80;30.40;;;;;;;2.81;53.77;102289.93;106820;1269;25366;-57
2023/02/12 03:59:21;;;;;;;45.00;31.60;;;;;;;2.80;53.85;102289.26;106649;1272;25565;-57
2023/02/12 04:01:51;;;;;;;47.30;31.50;;;;;;;2.81;53.88;102286.00;105917;1273;1005465;-57
2023/02/12 04:04:20;;;;;;;44.80;30.80;;;;;;;2.83;53.99;102282.66;106891;1272;25360;-57
2023/02/12 04:06:49;;;;;;;43.70;30.80;;;;;;;2.87;54.28;102277.65;106705;1272;25383;-57
2023/02/12 04:09:17;;;;;;;46.70;31.10;;;;;;;2.91;54.09;102275.40;105903;1273;1002747;-57
2023/02/12 04:12:01;;;;;;;44.60;31.80;;;;;;;2.96;53.77;102274.69;106494;1273;22527;-57
2023/02/12 04:15:02;;;;;;;42.40;30.00;;;;;;;2.98;54.16;102278.52;106645;1277;22543;-57
2023/02/12 04:17:57;;;;;;;42.50;30.70;;;;;;;2.98;53.90;102280.75;105917;1277;1016429;-57
2023/02/12 04:20:26;;;;;;;52.00;31.90;;;;;;;2.96;53.95;102277.93;106715;1272;22561;-57
2023/02/12 04:23:06;;;;;;;48.20;32.30;;;;;;;2.95;54.10;102278.76;106695;1259;25385;-57
2023/02/12 04:26:08;;;;;;;47.30;33.50;;;;;;;2.95;54.24;102278.59;106716;1272;25358;-57
2023/02/12 04:28:52;;;;;;;46.30;30.70;;;;;;;2.96;53.99;102282.41;106689;1272;25350;-57
2023/02/12 04:31:23;;;;;;;42.60;29.70;;;;;;;3.00;54.27;102282.71;106717;1272;24211;-58
2023/02/12 04:33:59;;;;;;;44.20;31.00;;;;;;;3.03;54.26;102280.42;105713;1272;1002976;-57
2023/02/12 04:36:32;;;;;;;47.70;31.10;;;;;;;3.07;54.51;102280.55;105535;1272;1002487;-57
2023/02/12 04:39:03;;;;;;;45.70;31.20;;;;;;;3.09;54.40;102286.27;106630;1273;22542;-57
2023/02/12 04:41:33;;;;;;;44.90;30.90;;;;;;;3.10;54.34;102286.30;105846;1253;1003792;-57
2023/02/12 04:44:16;;;;;;;44.90;31.70;;;;;;;3.09;54.36;102284.39;106729;1272;24262;-57
2023/02/12 04:46:45;;;;;;;43.10;30.90;;;;;;;3.09;54.53;102285.23;106915;1269;25379;-57
2023/02/12 04:49:15;;;;;;;44.70;31.10;;;;;;;3.09;54.90;102287.47;106961;1269;25342;-57
2023/02/12 04:51:44;;;;;;;43.70;29.90;;;;;;;3.11;54.90;102285.83;106902;1269;25239;-57
2023/02/12 04:54:13;;;;;;;41.90;29.80;;;;;;;3.16;55.02;102286.16;107031;1268;24285;-57
2023/02/12 04:56:42;;;;;;;42.80;30.30;;;;;;;3.21;54.80;102285.98;106793;1270;22849;-57
2023/02/12 04:59:11;;;;;;;43.60;29.90;;;;;;;3.25;55.04;102290.77;106928;1261;25354;-57
2023/02/12 05:01:40;;;;;;;42.70;30.30;;;;;;;3.29;54.95;102286.59;106921;1269;22600;-57
2023/02/12 05:04:10;;;;;;;46.20;30.60;;;;;;;3.29;54.68;102288.50;106223;1269;1003007;-58
2023/02/12 05:06:39;;;;;;;42.80;31.30;;;;;;;3.29;54.84;102291.24;106881;1269;25375;-57
2023/02/12 05:09:08;;;;;;;45.70;31.30;;;;;;;3.29;54.92;102293.81;106191;1269;1002894;-58
2023/02/12 05:11:40;;;;;;;43.00;31.40;;;;;;;3.30;55.15;102296.74;106803;1270;22526;-58
2023/02/12 05:14:09;;;;;;;39.80;29.30;;;;;;;3.32;55.38;102297.13;106893;1273;24261;-57
2023/02/12 05:16:38;;;;;;;42.00;29.80;;;;;;;3.36;55.32;102300.17;106811;1257;25280;-57
2023/02/12 05:19:08;;;;;;;42.60;30.40;;;;;;;3.42;55.11;102302.09;107069;1269;25340;-57
2023/02/12 05:21:37;;;;;;;43.70;29.80;;;;;;;3.47;55.26;102304.64;105969;1276;1003087;-57
2023/02/12 05:24:06;;;;;;;43.90;30.90;;;;;;;3.50;54.83;102306.29;106962;1269;25353;-57
2023/02/12 05:26:35;;;;;;;45.20;31.70;;;;;;;3.51;54.96;102305.64;106810;1273;22550;-57
2023/02/12 05:29:03;;;;;;;41.80;29.20;;;;;;;3.52;54.77;102312.86;106921;1263;24271;-57
2023/02/12 05:31:31;;;;;;;43.60;31.00;;;;;;;3.50;54.81;102306.48;106806;1272;25376;-57
2023/02/12 05:34:00;;;;;;;47.00;32.40;;;;;;;3.52;54.80;102306.86;107056;1263;24931;-57
2023/02/12 05:36:29;;;;;;;42.80;30.80;;;;;;;3.53;54.80;102310.67;106789;1269;25360;-57
2023/02/12 05:38:59;;;;;;;45.10;30.90;;;;;;;3.56;54.94;102314.90;106902;1270;24352;-57
2023/02/12 05:41:27;;;;;;;41.40;30.20;;;;;;;3.60;54.95;102316.03;106972;1270;22639;-57
2023/02/12 05:43:56;;;;;;;46.70;31.10;;;;;;;3.65;54.87;102320.50;106721;1276;25379;-58
2023/02/12 05:46:24;;;;;;;44.00;31.00;;;;;;;3.69;54.79;102320.12;106295;1269;1002413;-57
2023/02/12 05:48:53;;;;;;;42.60;29.60;;;;;;;3.72;54.86;102326.02;106097;1270;1003072;-57
2023/02/12 05:51:24;;;;;;;40.80;28.90;;;;;;;3.72;54.65;102324.33;106179;1269;1002949;-57
2023/02/12 05:53:56;;;;;;;43.70;30.50;;;;;;;3.72;54.89;102324.15;106108;1272;1003084;-57
2023/02/12 05:56:28;;;;;;;43.10;29.40;;;;;;;3.73;55.13;102328.48;106993;1269;22575;-57
2023/02/12 05:58:59;;;;;;;40.40;29.00;;;;;;;3.73;55.17;102334.66;107005;1268;22527;-57
2023/02/12 06:01:33;;;;;;;36.30;27.40;;;;;;;3.76;55.42;102341.25;106934;1270;22540;-57
2023/02/12 06:04:02;;;;;;;39.50;28.70;;;;;;;3.80;55.57;102341.40;106003;1276;1002521;-57
2023/02/12 06:06:30;;;;;;;39.80;28.40;;;;;;;3.85;55.72;102339.15;106889;1270;25334;-57
2023/02/12 06:08:59;;;;;;;39.90;28.80;;;;;;;3.91;55.72;102342.91;106262;1272;1003668;-57
2023/02/12 06:11:29;;;;;;;41.80;28.30;;;;;;;3.96;55.83;102345.65;106961;1269;22530;-57
2023/02/12 06:14:01;;;;;;;39.60;28.50;;;;;;;3.99;55.87;102347.81;106886;1272;22517;-57
2023/02/12 06:16:31;;;;;;;37.90;28.70;;;;;;;4.04;55.95;102347.11;107041;1269;25446;-57
2023/02/12 06:19:01;;;;;;;40.00;28.30;;;;;;;4.10;56.18;102345.41;106855;1272;22527;-57
2023/02/12 06:21:29;;;;;;;37.90;26.50;;;;;;;4.18;56.42;102346.50;106937;1272;24239;-57
2023/02/12 06:23:58;;;;;;;34.80;25.90;;;;;;;4.28;56.44;102345.60;106939;1269;25418;-57
2023/02/12 06:26:29;;;;;;;36.80;25.80;;;;;;;4.38;56.32;102345.38;106206;1268;1015568;-57
2023/02/12 06:28:57;;;;;;;36.20;25.50;;;;;;;4.46;56.09;102345.94;106964;1253;25341;-57
2023/02/12 06:31:31;;;;;;;33.60;24.80;;;;;;;4.53;56.25;102350.45;107042;1268;25353;-58
2023/02/12 06:34:02;;;;;;;35.20;25.60;;;;;;;4.59;56.10;102353.70;106211;1270;1003687;-58
2023/02/12 06:36:31;;;;;;;37.10;25.20;;;;;;;4.64;56.12;102356.95;106695;1275;22527;-57
2023/02/12 06:39:01;;;;;;;32.60;25.10;;;;;;;4.69;56.26;102358.98;106650;1272;25269;-57
2023/02/12 06:41:30;;;;;;;30.20;22.50;;;;;;;4.75;56.45;102363.77;106649;1276;25375;-57
2023/02/12 06:44:00;;;;;;;32.20;24.60;;;;;;;4.86;56.43;102365.98;105980;1269;1002773;-57
2023/02/12 06:46:29;;;;;;;33.00;24.60;;;;;;;4.95;56.25;102367.77;106721;1269;25498;-57
2023/02/12 06:48:58;;;;;;;32.70;24.10;;;;;;;5.03;56.18;102364.87;106860;1269;24339;-57
2023/02/12 06:51:27;;;;;;;32.30;24.40;;;;;;;5.08;55.99;102364.84;106875;1269;22530;-57
2023/02/12 06:53:56;;;;;;;32.30;23.50;;;;;;;5.10;55.95;102365.58;106854;1273;25375;-57
2023/02/12 06:56:25;;;;;;;33.20;23.90;;;;;;;5.12;56.10;102367.36;107025;1270;25344;-57
2023/02/12 06:58:56;;;;;;;32.70;24.00;;;;;;;5.15;56.10;102371.38;107004;1270;22649;-57
2023/02/12 07:01:26;;;;;;;30.00;21.90;;;;;;;5.18;56.42;102373.52;106917;1270;26740;-57
2023/02/12 07:03:57;;;;;;;30.50;22.30;;;;;;;5.23;56.63;102378.30;106983;1269;24288;-58
2023/02/12 07:06:25;;;;;;;49.30;31.60;;;;;;;5.30;56.64;102380.39;106848;1270;23929;-57
2023/02/12 07:08:55;;;;;;;42.00;28.30;;;;;;;5.37;56.57;102380.58;106836;1273;25346;-58
2023/02/12 07:11:25;;;;;;;35.10;24.00;;;;;;;5.44;56.59;102384.88;106845;1273;22526;-57
2023/02/12 07:13:54;;;;;;;33.50;24.20;;;;;;;5.50;56.63;102386.92;107012;1270;25536;-57
2023/02/12 07:16:22;;;;;;;31.40;22.50;;;;;;;5.54;56.65;102385.30;106865;1270;25360;-57
2023/02/12 07:18:54;;;;;;;26.60;21.00;;;;;;;5.59;56.55;102385.95;106911;1270;26755;-57
2023/02/12 07:21:23;;;;;;;29.10;21.20;;;;;;;5.65;56.72;102389.52;106728;1270;22530;-57
2023/02/12 07:23:52;;;;;;;27.80;20.70;;;;;;;5.71;56.79;102390.36;106940;1269;22556;-57
2023/02/12 07:26:22;;;;;;;27.80;21.20;;;;;;;5.78;56.74;102390.71;106177;1269;1003719;-58
2023/02/12 07:28:50;;;;;;;26.40;19.40;;;;;;;5.85;56.86;102391.08;106887;1275;22609;-57
2023/02/12 07:31:20;;;;;;;28.40;20.90;;;;;;;5.93;56.89;102393.85;106934;1270;25379;-57
2023/02/12 07:33:55;;;;;;;24.60;19.50;;;;;;;6.00;56.87;102399.36;106225;1269;1003268;-57
2023/02/12 07:36:25;;;;;;;29.00;20.80;;;;;;;6.05;56.88;102398.09;107072;1269;22533;-57
2023/02/12 07:38:54;;;;;;;24.30;18.60;;;;;;;6.11;56.87;102398.23;106969;1270;23990;-57
2023/02/12 07:41:24;;;;;;;28.50;22.30;;;;;;;6.16;56.83;102401.78;106787;1272;25415;-57
2023/02/12 07:44:08;;;;;;;26.90;19.90;;;;;;;6.23;57.05;102403.84;106903;1269;25354;-57
2023/02/12 07:46:43;;;;;;;27.50;20.20;;;;;;;6.31;56.92;102407.14;106967;1270;22568;-57
2023/02/12 07:49:21;;;;;;;26.70;20.80;;;;;;;6.37;56.77;102400.54;106295;1269;1003320;-57
2023/02/12 07:51:50;;;;;;;27.30;20.10;;;;;;;6.40;56.67;102402.32;106153;1253;1005609;-57
2023/02/12 07:54:22;;;;;;;26.40;18.40;;;;;;;6.40;56.82;102405.95;106962;1270;25534;-57
2023/02/12 07:56:51;;;;;;;24.90;18.10;;;;;;;6.37;56.81;102409.32;106954;1270;25369;-58
2023/02/12 07:59:20;;;;;;;22.70;16.50;;;;;;;6.32;57.15;102409.03;106948;1269;23865;-58
2023/02/12 08:01:50;;;;;;;22.50;17.30;;;;;;;6.29;57.55;102413.11;106982;1269;24236;-58
2023/02/12 08:04:20;;;;;;;19.80;15.40;;;;;;;6.29;57.99;102417.06;106905;1272;22767;-57
2023/02/12 08:06:50;;;;;;;22.20;16.50;;;;;;;6.30;58.24;102417.44;106808;1256;25341;-58
2023/02/12 08:09:27;;;;;;;19.50;15.40;;;;;;;6.30;58.30;102420.73;107052;1269;25427;-57
2023/02/12 08:11:55;;;;;;;21.10;15.30;;;;;;;6.31;58.43;102428.66;106978;1269;24397;-57
2023/02/12 08:14:26;;;;;;;21.20;15.60;;;;;;;6.31;58.46;102428.67;106200;1276;1003039;-57
2023/02/12 08:16:55;;;;;;;21.00;15.30;;;;;;;6.30;58.63;102434.52;106231;1269;1002991;-57
2023/02/12 08:19:23;;;;;;;18.90;14.80;;;;;;;6.30;58.82;102437.60;106935;1272;25538;-57
2023/02/12 08:21:54;;;;;;;19.40;15.40;;;;;;;6.33;58.88;102440.27;106793;1273;25362;-57
2023/02/12 08:24:23;;;;;;;18.90;14.70;;;;;;;6.37;58.89;102446.38;106205;1270;1002609;-57
2023/02/12 08:26:52;;;;;;;17.90;14.80;;;;;;;6.39;58.92;102452.65;106302;1268;1002803;-57
2023/02/12 08:29:23;;;;;;;21.10;15.70;;;;;;;6.41;58.89;102452.67;106949;1269;25369;-58
2023/02/12 08:31:57;;;;;;;19.10;15.00;;;;;;;6.42;58.98;102461.33;106970;1269;23310;-58
2023/02/12 08:34:31;;;;;;;19.10;14.40;;;;;;;6.44;59.09;102466.04;106840;1269;22574;-58
2023/02/12 08:37:04;;;;;;;20.00;15.70;;;;;;;6.47;59.17;102467.13;106726;1270;26648;-59
2023/02/12 08:39:32;;;;;;;20.20;15.90;;;;;;;6.49;59.11;102468.04;106570;1260;23129;-57
2023/02/12 08:42:01;;;;;;;20.50;15.40;;;;;;;6.53;59.17;102467.23;105922;1276;1003010;-57
2023/02/12 08:44:30;;;;;;;19.60;15.70;;;;;;;6.58;59.04;102467.19;106601;1270;25411;-58
2023/02/12 08:47:01;;;;;;;18.80;15.10;;;;;;;6.61;58.88;102468.97;105940;1272;1003191;-57
2023/02/12 08:49:31;;;;;;;20.10;16.10;;;;;;;6.64;58.95;102471.61;106879;1269;25353;-57
2023/02/12 08:52:01;;;;;;;20.80;16.20;;;;;;;6.72;58.90;102475.25;106988;1272;25344;-57
2023/02/12 08:54:32;;;;;;;22.00;16.40;;;;;;;6.79;58.85;102470.59;107035;1269;22549;-57
2023/02/12 08:57:01;;;;;;;20.60;16.10;;;;;;;6.80;58.58;102473.69;106937;1269;25421;-58
2023/02/12 08:59:30;;;;;;;18.30;14.80;;;;;;;6.80;58.54;102474.38;106978;1270;25361;-57
2023/02/12 09:01:59;;;;;;;18.80;14.30;;;;;;;6.83;58.85;102479.95;106970;1269;25379;-57
2023/02/12 09:04:29;;;;;;;18.10;14.40;;;;;;;6.88;58.99;102485.08;107022;1270;25564;-57
2023/02/12 09:06:58;;;;;;;19.00;14.50;;;;;;;6.96;58.73;102489.38;107013;1269;25370;-57
2023/02/12 09:09:27;;;;;;;18.20;14.10;;;;;;;6.99;58.44;102493.23;107038;1270;25102;-57
2023/02/12 09:11:59;;;;;;;20.20;15.10;;;;;;;6.99;58.32;102498.06;107030;1269;25449;-58
2023/02/12 09:14:28;;;;;;;18.90;15.00;;;;;;;6.96;58.22;102498.34;106209;1272;1003098;-57
2023/02/12 09:16:57;;;;;;;18.30;14.30;;;;;;;6.93;58.24;102506.91;106884;1269;25345;-57
2023/02/12 09:19:26;;;;;;;17.60;14.80;;;;;;;6.88;58.37;102510.09;106204;1270;1003044;-57
2023/02/12 09:21:54;;;;;;;16.10;13.10;;;;;;;6.82;58.38;102516.52;106912;1276;25537;-57
2023/02/12 09:24:26;;;;;;;16.20;13.20;;;;;;;6.80;58.54;102522.16;107047;1274;25524;-58
2023/02/12 09:26:55;;;;;;;16.20;13.60;;;;;;;6.77;58.65;102520.90;106987;1269;22534;-57
2023/02/12 09:29:24;;;;;;;19.10;13.70;;;;;;;6.74;58.77;102522.37;106832;1254;22541;-57
2023/02/12 09:31:52;;;;;;;16.50;13.70;;;;;;;6.71;58.97;102525.24;107018;1272;25341;-57
2023/02/12 09:34:23;;;;;;;15.60;12.50;;;;;;;6.73;59.21;102523.90;107105;1269;25542;-58
2023/02/12 09:36:52;;;;;;;15.60;12.10;;;;;;;6.77;59.50;102527.10;107029;1270;25375;-57
2023/02/12 09:39:22;;;;;;;17.30;13.30;;;;;;;6.82;59.52;102528.25;107108;1270;24213;-58
2023/02/12 09:41:53;;;;;;;15.90;11.90;;;;;;;6.87;59.35;102531.80;106939;1269;25278;-58
2023/02/12 09:44:22;;;;;;;;;;;;;;;6.88;59.10;102535.11;106938;1276;25475;-57
2023/02/12 09:47:02;;;;;;;16.40;12.70;;;;;;;6.86;59.12;102532.30;107037;1260;25663;-57
2023/02/12 09:49:45;;;;;;;17.00;11.70;;;;;;;6.82;59.01;102529.98;106212;1272;1003693;-57
2023/02/12 09:52:19;;;;;;;14.00;11.40;;;;;;;6.77;59.26;102532.96;106986;1272;22819;-57
2023/02/12 09:54:49;;;;;;;11.40;9.50;;;;;;;6.73;59.40;102531.15;106986;1272;22533;-58
2023/02/12 09:57:35;;;;;;;11.70;10.00;;;;;;;6.70;59.29;102533.48;106754;1276;25369;-57
2023/02/12 10:00:08;;;;;;;10.90;9.00;;;;;;;6.69;59.29;102533.63;106126;1272;1003663;-57
2023/02/12 10:02:37;;;;;;;10.40;8.40;;;;;;;6.68;59.07;102538.63;106968;1271;25320;-57
2023/02/12 10:05:18;;;;;;;8.10;6.90;;;;;;;6.65;59.02;102538.02;106868;1260;22541;-57
2023/02/12 10:08:05;;;;;;;7.40;6.50;;;;;;;6.63;58.98;102544.88;107029;1269;22529;-57
2023/02/12 10:10:40;;;;;;;6.70;6.00;;;;;;;6.66;58.93;102547.70;106940;1270;25344;-57
2023/02/12 10:13:17;;;;;;;5.60;4.90;;;;;;;6.69;58.65;102545.19;106827;1272;22610;-57
2023/02/12 10:15:59;;;;;;;5.20;4.70;;;;;;;6.69;58.40;102544.67;106642;1271;25341;-57
2023/02/12 10:18:46;;;;;;;5.20;4.50;;;;;;;6.69;58.40;102550.90;106812;1277;25354;-57
2023/02/12 10:21:17;;;;;;;5.20;4.50;;;;;;;6.69;58.41;102552.44;106051;1272;1002871;-57
2023/02/12 10:24:11;;;;;;;5.40;4.10;;;;;;;6.71;58.24;102549.55;106784;1270;25331;-57
2023/02/12 10:27:02;;;;;;;4.20;3.80;;;;;;;6.71;58.10;102554.55;106809;1274;25411;-58
2023/02/12 10:29:33;;;;;;;4.80;4.00;;;;;;;6.69;57.84;102561.75;106773;1269;25372;-57
2023/02/12 10:32:06;;;;;;;4.00;3.60;;;;;;;6.67;57.75;102565.85;106700;1273;22864;-57
2023/02/12 10:34:36;;;;;;;5.00;3.00;;;;;;;6.64;57.67;102569.55;106582;1273;22524;-58
2023/02/12 10:37:11;;;;;;;3.60;3.30;;;;;;;6.62;57.69;102568.64;106703;1277;25340;-58
2023/02/12 10:39:47;;;;;;;3.80;3.30;;;;;;;6.57;57.68;102569.24;106629;1277;24214;-57
2023/02/12 10:42:40;;;;;;;3.80;3.50;;;;;;;6.56;57.68;102573.54;106404;1273;22587;-57
2023/02/12 10:45:34;;;;;;;4.10;3.60;;;;;;;6.57;57.72;102585.95;106570;1270;24435;-58
2023/02/12 10:48:15;;;;;;;3.80;3.40;;;;;;;6.58;57.76;102587.89;106625;1269;24095;-57
2023/02/12 10:50:49;;;;;;;3.40;3.10;;;;;;;6.60;57.73;102589.82;106765;1273;22547;-57
2023/02/12 10:53:25;;;;;;;3.10;2.80;;;;;;;6.64;57.65;102588.55;106744;1269;23604;-57
2023/02/12 10:56:08;;;;;;;4.40;3.40;;;;;;;6.69;57.34;102590.39;106545;1269;25282;-57
2023/02/12 10:58:59;;;;;;;3.80;3.20;;;;;;;6.72;56.98;102598.90;106686;1270;23212;-58
2023/02/12 11:01:36;;;;;;;3.30;3.00;;;;;;;6.74;56.91;102609.13;106847;1269;22524;-58
2023/02/12 11:04:20;;;;;;;4.60;3.90;;;;;;;6.78;56.90;102608.69;106849;1275;22530;-57
2023/02/12 11:07:04;;;;;;;3.20;2.80;;;;;;;6.82;56.72;102607.06;107097;1269;25337;-57
2023/02/12 11:09:46;;;;;;;2.60;2.40;;;;;;;6.83;56.53;102608.47;106936;1269;23099;-57
2023/02/12 11:12:47;;;;;;;2.60;2.20;;;;;;;6.87;55.70;102615.30;106942;1270;25398;-57
2023/02/12 11:15:21;;;;;;;2.80;2.20;;;;;;;6.85;55.06;102613.52;106352;1275;22540;-59
2023/02/12 11:17:57;;;;;;;2.10;1.90;;;;;;;6.86;54.54;102615.63;106276;1281;22559;-57
2023/02/12 11:20:49;;;;;;;2.40;1.90;;;;;;;6.93;53.90;102617.67;106388;1276;22663;-57
2023/02/12 11:23:38;;;;;;;2.90;1.60;;;;;;;7.04;52.47;102619.13;105852;1281;24264;-57
2023/02/12 11:26:19;;;;;;;1.60;1.30;;;;;;;7.12;52.16;102618.10;105871;1285;24487;-59
2023/02/12 11:29:02;;;;;;;2.20;1.50;;;;;;;7.22;51.72;102611.60;105835;1284;25559;-58
2023/02/12 11:31:32;;;;;;;2.50;1.70;;;;;;;7.32;50.93;102614.23;104978;1281;1003265;-58
2023/02/12 11:34:03;;;;;;;1.60;1.10;;;;;;;7.38;50.34;102621.43;105092;1287;1003073;-57
2023/02/12 11:36:35;;;;;;;1.90;1.40;;;;;;;7.40;50.00;102623.89;105875;1285;26079;-57
2023/02/12 11:39:28;;;;;;;1.40;1.30;;;;;;;7.34;49.93;102631.55;105941;1265;25389;-57
2023/02/12 11:41:58;;;;;;;2.00;1.80;;;;;;;7.25;50.32;102628.06;105942;1285;22549;-56